createdAt,value
2019-06-25T00:01:48.221Z,5.20
2019-06-25T00:03:57.400Z,5.30
2019-06-25T00:06:12.856Z,5.60
2019-06-25T00:08:18.242Z,5.60
2019-06-25T00:10:26.912Z,5.00
2019-06-25T00:12:32.627Z,5.50
2019-06-25T00:14:39.991Z,6.00
2019-06-25T00:16:48.687Z,5.50
2019-06-25T00:18:57.098Z,5.50
2019-06-25T00:21:03.406Z,5.90
2019-06-25T00:23:10.215Z,5.70
2019-06-25T00:25:23.554Z,6.03
2019-06-25T00:27:40.185Z,5.47
2019-06-25T00:29:56.476Z,6.03
2019-06-25T00:32:10.224Z,5.67
2019-06-25T00:34:19.222Z,5.60
2019-06-25T00:36:29.554Z,5.87
2019-06-25T00:38:44.008Z,5.87
2019-06-25T00:40:55.674Z,5.37
2019-06-25T00:43:02.294Z,5.27
2019-06-25T00:45:19.415Z,5.83
2019-06-25T00:47:25.548Z,5.30
2019-06-25T00:49:33.566Z,5.50
2019-06-25T00:51:40.514Z,5.60
2019-06-25T00:53:54.895Z,5.70
2019-06-25T00:56:01.665Z,5.33
2019-06-25T00:58:10.691Z,5.60
2019-06-25T01:00:20.277Z,5.60
2019-06-25T01:03:04.480Z,5.70
2019-06-25T01:05:19.953Z,5.90
2019-06-25T01:07:32.058Z,5.27
2019-06-25T01:09:42.788Z,6.03
2019-06-25T01:11:46.807Z,6.67
2019-06-25T01:13:57.156Z,6.13
2019-06-25T01:16:04.190Z,6.33
2019-06-25T01:18:10.208Z,6.10
2019-06-25T01:20:15.881Z,5.80
2019-06-25T01:22:21.839Z,5.90
2019-06-25T01:24:28.807Z,5.20
2019-06-25T01:26:37.544Z,6.30
2019-06-25T01:28:42.932Z,5.87
2019-06-25T01:30:50.544Z,6.10
2019-06-25T01:33:11.811Z,5.90
2019-06-25T01:35:18.466Z,5.40
2019-06-25T01:37:26.083Z,6.33
2019-06-25T01:39:32.346Z,5.80
2019-06-25T01:41:38.749Z,5.80
2019-06-25T01:43:47.222Z,5.67
2019-06-25T01:45:57.698Z,5.70
2019-06-25T01:48:11.518Z,5.70
2019-06-25T01:50:25.067Z,6.27
2019-06-25T01:52:38.270Z,6.30
2019-06-25T01:54:42.485Z,5.47
2019-06-25T01:56:55.319Z,6.03
2019-06-25T01:59:10.876Z,6.07
2019-06-25T02:01:20.126Z,5.97
2019-06-25T02:03:28.219Z,6.40
2019-06-25T02:05:37.341Z,6.33
2019-06-25T02:07:46.753Z,6.43
2019-06-25T02:10:02.909Z,6.20
2019-06-25T02:12:18.865Z,6.30
2019-06-25T02:14:25.328Z,6.20
2019-06-25T02:16:35.905Z,6.03
2019-06-25T02:18:46.449Z,6.37
2019-06-25T02:20:55.269Z,6.23
2019-06-25T02:23:04.376Z,6.12
2019-06-25T02:25:12.956Z,6.43
2019-06-25T02:27:29.612Z,6.33
2019-06-25T02:29:37.097Z,6.00
2019-06-25T02:31:43.309Z,6.33
2019-06-25T02:33:57.114Z,6.43
2019-06-25T02:36:05.930Z,6.60
2019-06-25T02:38:15.967Z,6.57
2019-06-25T02:40:22.120Z,6.30
2019-06-25T02:42:29.028Z,6.70
2019-06-25T02:44:37.096Z,6.40
2019-06-25T02:46:53.902Z,6.10
2019-06-25T02:49:01.637Z,6.60
2019-06-25T02:51:11.136Z,6.70
2019-06-25T02:53:17.891Z,6.30
2019-06-25T02:55:34.617Z,6.50
2019-06-25T02:57:41.487Z,6.43
2019-06-25T02:59:52.868Z,6.03
2019-06-25T03:02:12.996Z,5.97
2019-06-25T03:04:19.978Z,7.00
2019-06-25T03:06:31.619Z,6.50
2019-06-25T03:08:43.817Z,6.70
2019-06-25T03:10:51.718Z,6.60
2019-06-25T03:13:00.843Z,7.03
2019-06-25T03:15:16.117Z,6.57
2019-06-25T03:17:27.951Z,6.45
2019-06-25T03:19:40.306Z,5.83
2019-06-25T03:21:52.443Z,6.90
2019-06-25T03:24:09.014Z,6.47
2019-06-25T03:26:15.484Z,7.00
2019-06-25T03:28:21.993Z,6.83
2019-06-25T03:30:30.848Z,7.47
2019-06-25T03:32:42.834Z,6.63
2019-06-25T03:34:50.619Z,6.47
2019-06-25T03:37:09.011Z,6.20
2019-06-25T03:39:24.996Z,6.37
2019-06-25T03:41:36.524Z,6.77
2019-06-25T03:43:51.730Z,6.67
2019-06-25T03:45:57.166Z,7.00
2019-06-25T03:48:07.122Z,6.60
2019-06-25T03:50:15.245Z,6.23
2019-06-25T03:52:24.370Z,6.33
2019-06-25T03:54:31.959Z,6.27
2019-06-25T03:56:38.339Z,6.55
2019-06-25T03:58:43.235Z,6.40
2019-06-25T04:00:48.240Z,5.87
2019-06-25T04:02:53.171Z,6.40
2019-06-25T04:04:58.834Z,5.53
2019-06-25T04:07:07.196Z,5.27
2019-06-25T04:09:12.282Z,6.10
2019-06-25T04:11:17.133Z,5.00
2019-06-25T04:13:21.998Z,5.47
2019-06-25T04:15:26.998Z,5.10
2019-06-25T04:17:32.359Z,4.60
2019-06-25T04:19:37.271Z,5.20
2019-06-25T04:21:42.732Z,4.70
2019-06-25T04:23:49.063Z,5.60
2019-06-25T04:25:54.322Z,5.60
2019-06-25T04:27:59.570Z,4.80
2019-06-25T04:30:06.211Z,5.20
2019-06-25T04:32:11.067Z,5.07
2019-06-25T04:34:25.851Z,5.40
2019-06-25T04:36:31.027Z,5.70
2019-06-25T04:38:36.171Z,5.60
2019-06-25T04:40:41.659Z,5.70
2019-06-25T04:42:46.875Z,5.43
2019-06-25T04:44:52.461Z,5.13
2019-06-25T04:46:58.303Z,4.70
2019-06-25T04:49:03.108Z,4.40
2019-06-25T04:51:07.924Z,4.63
2019-06-25T04:53:13.651Z,4.70
2019-06-25T04:55:18.665Z,4.80
2019-06-25T04:57:23.548Z,4.80
2019-06-25T04:59:28.817Z,4.43
2019-06-25T05:01:34.520Z,4.93
2019-06-25T05:03:39.488Z,4.77
2019-06-25T05:05:44.441Z,4.70
2019-06-25T05:07:49.912Z,4.47
2019-06-25T05:09:55.463Z,5.07
2019-06-25T05:12:00.790Z,4.20
2019-06-25T05:14:09.454Z,4.50
2019-06-25T05:16:14.815Z,4.57
2019-06-25T05:18:22.040Z,4.83
2019-06-25T05:20:27.214Z,4.23
2019-06-25T05:22:39.625Z,4.63
2019-06-25T05:24:44.899Z,4.20
2019-06-25T05:26:50.712Z,3.80
2019-06-25T05:28:55.979Z,4.57
2019-06-25T05:31:02.329Z,3.97
2019-06-25T05:33:08.352Z,3.93
2019-06-25T05:35:14.626Z,3.63
2019-06-25T05:37:32.784Z,3.90
2019-06-25T05:39:37.617Z,3.65
2019-06-25T05:41:42.364Z,3.93
2019-06-25T05:43:47.282Z,4.50
2019-06-25T05:45:52.086Z,4.23
2019-06-25T05:47:56.969Z,3.50
2019-06-25T05:50:02.328Z,3.97
2019-06-25T05:52:07.717Z,3.90
2019-06-25T05:54:12.990Z,3.80
2019-06-25T05:56:18.601Z,4.10
2019-06-25T05:58:23.452Z,4.60
2019-06-25T06:00:28.581Z,3.93
2019-06-25T06:02:33.723Z,3.70
2019-06-25T06:04:39.087Z,3.70
2019-06-25T06:06:43.930Z,3.63
2019-06-25T06:08:48.801Z,3.57
2019-06-25T06:10:53.671Z,4.07
2019-06-25T06:12:58.684Z,3.75
2019-06-25T06:15:03.836Z,3.50
2019-06-25T06:17:08.764Z,3.20
2019-06-25T06:19:13.865Z,3.53
2019-06-25T06:21:18.790Z,3.80
2019-06-25T06:23:24.186Z,3.70
2019-06-25T06:25:28.961Z,4.10
2019-06-25T06:27:33.744Z,3.72
2019-06-25T06:29:38.906Z,3.60
2019-06-25T06:31:44.080Z,3.70
2019-06-25T06:33:50.690Z,3.47
2019-06-25T06:35:55.970Z,3.57
2019-06-25T06:38:00.781Z,3.33
2019-06-25T06:40:06.691Z,3.23
2019-06-25T06:42:11.651Z,3.60
2019-06-25T06:44:16.881Z,3.30
2019-06-25T06:46:21.858Z,3.80
2019-06-25T06:48:26.759Z,3.20
2019-06-25T06:50:31.679Z,3.70
2019-06-25T06:52:37.181Z,3.67
2019-06-25T06:54:42.071Z,3.47
2019-06-25T06:56:47.460Z,3.57
2019-06-25T06:58:52.402Z,3.50
2019-06-25T07:00:57.834Z,3.30
2019-06-25T07:03:03.716Z,3.60
2019-06-25T07:05:09.098Z,3.13
2019-06-25T07:07:14.569Z,3.23
2019-06-25T07:09:19.530Z,3.30
2019-06-25T07:11:24.370Z,3.73
2019-06-25T07:13:29.519Z,3.70
2019-06-25T07:15:34.577Z,3.43
2019-06-25T07:17:39.631Z,3.73
2019-06-25T07:19:44.961Z,3.50
2019-06-25T07:21:49.797Z,3.30
2019-06-25T07:23:54.761Z,3.30
2019-06-25T07:26:00.122Z,3.10
2019-06-25T07:28:05.969Z,3.60
2019-06-25T07:30:18.016Z,3.50
2019-06-25T07:32:23.755Z,3.30
2019-06-25T07:34:28.590Z,2.90
2019-06-25T07:36:33.476Z,3.00
2019-06-25T07:38:38.806Z,2.90
2019-06-25T07:40:43.714Z,3.00
2019-06-25T07:42:48.560Z,3.33
2019-06-25T07:44:53.513Z,3.03
2019-06-25T07:46:58.339Z,3.13
2019-06-25T07:49:03.211Z,3.17
2019-06-25T07:51:08.877Z,3.10
2019-06-25T07:53:13.756Z,3.30
2019-06-25T07:55:18.614Z,3.10
2019-06-25T07:57:23.906Z,2.90
2019-06-25T07:59:29.159Z,3.77
2019-06-25T08:01:33.988Z,3.40
2019-06-25T08:03:39.163Z,3.30
2019-06-25T08:05:44.258Z,2.80
2019-06-25T08:07:49.241Z,3.67
2019-06-25T08:09:54.126Z,3.85
2019-06-25T08:11:58.957Z,2.87
2019-06-25T08:14:04.023Z,3.58
2019-06-25T08:16:09.518Z,3.12
2019-06-25T08:18:14.307Z,3.22
2019-06-25T08:20:19.641Z,3.05
2019-06-25T08:22:27.991Z,3.30
2019-06-25T08:24:30.879Z,3.08
2019-06-25T08:26:35.676Z,3.33
2019-06-25T08:28:40.699Z,3.40
2019-06-25T08:30:46.051Z,3.75
2019-06-25T08:32:51.277Z,3.12
2019-06-25T08:34:56.912Z,3.58
2019-06-25T08:37:02.113Z,2.92
2019-06-25T08:39:08.294Z,3.20
2019-06-25T08:41:13.507Z,3.58
2019-06-25T08:43:19.860Z,3.35
2019-06-25T08:45:24.957Z,4.00
2019-06-25T08:47:30.279Z,3.10
2019-06-25T08:49:35.158Z,3.67
2019-06-25T08:51:39.883Z,3.50
2019-06-25T08:53:44.800Z,3.15
2019-06-25T08:55:50.179Z,3.30
2019-06-25T08:57:55.044Z,3.67
2019-06-25T08:59:59.948Z,3.62
2019-06-25T09:02:04.847Z,3.80
2019-06-25T09:04:10.113Z,3.30
2019-06-25T09:06:15.998Z,3.58
2019-06-25T09:08:21.207Z,3.25
2019-06-25T09:10:26.527Z,3.80
2019-06-25T09:12:31.322Z,3.10
2019-06-25T09:14:36.251Z,4.08
2019-06-25T09:16:41.034Z,3.50
2019-06-25T09:18:46.556Z,3.40
2019-06-25T09:20:51.820Z,3.60
2019-06-25T09:22:59.593Z,3.42
2019-06-25T09:25:03.145Z,3.08
2019-06-25T09:27:07.911Z,3.62
2019-06-25T09:29:12.674Z,3.50
2019-06-25T09:31:17.829Z,3.90
2019-06-25T09:33:24.105Z,3.20
2019-06-25T09:35:28.880Z,3.27
2019-06-25T09:37:35.904Z,3.52
2019-06-25T09:39:42.292Z,3.60
2019-06-25T09:41:45.707Z,3.35
2019-06-25T09:43:59.403Z,3.40
2019-06-25T09:45:55.297Z,3.20
2019-06-25T09:48:02.550Z,3.50
2019-06-25T09:50:07.610Z,3.55
2019-06-25T09:52:13.109Z,3.58
2019-06-25T09:54:18.663Z,3.40
2019-06-25T09:56:23.675Z,3.27
2019-06-25T09:58:29.528Z,3.30
2019-06-25T10:01:02.128Z,3.77
2019-06-25T10:03:08.795Z,3.37
2019-06-25T10:05:27.532Z,3.50
2019-06-25T10:07:21.408Z,3.22
2019-06-25T10:09:26.346Z,3.40
2019-06-25T10:11:31.096Z,4.10
2019-06-25T10:13:36.084Z,3.80
2019-06-25T10:15:41.089Z,3.37
2019-06-25T10:17:47.162Z,3.60
2019-06-25T10:19:52.329Z,3.40
2019-06-25T10:22:08.908Z,3.52
2019-06-25T10:24:14.242Z,3.62
2019-06-25T10:26:19.043Z,3.30
2019-06-25T10:28:30.850Z,3.70
2019-06-25T10:30:37.562Z,3.60
2019-06-25T10:32:42.447Z,3.42
2019-06-25T10:34:47.342Z,3.65
2019-06-25T10:36:52.266Z,3.33
2019-06-25T10:38:57.657Z,3.60
2019-06-25T10:41:02.456Z,3.70
2019-06-25T10:43:07.703Z,3.45
2019-06-25T10:45:12.727Z,3.52
2019-06-25T10:47:17.575Z,3.60
2019-06-25T10:49:22.428Z,3.25
2019-06-25T10:51:27.453Z,3.65
2019-06-25T10:53:32.903Z,3.70
2019-06-25T10:55:37.928Z,3.65
2019-06-25T10:57:42.814Z,3.72
2019-06-25T10:59:47.648Z,3.35
2019-06-25T11:01:52.433Z,3.70
2019-06-25T11:03:57.596Z,4.08
2019-06-25T11:06:06.171Z,3.10
2019-06-25T11:08:09.338Z,3.35
2019-06-25T11:10:14.523Z,3.60
2019-06-25T11:12:19.448Z,3.50
2019-06-25T11:14:24.400Z,3.92
2019-06-25T11:16:29.541Z,3.35
2019-06-25T11:18:34.404Z,3.40
2019-06-25T11:20:39.534Z,3.80
2019-06-25T11:22:45.243Z,3.12
2019-06-25T11:24:50.501Z,3.58
2019-06-25T11:26:55.839Z,3.72
2019-06-25T11:29:00.705Z,4.60
2019-06-25T11:31:05.659Z,3.17
2019-06-25T11:33:10.767Z,4.05
2019-06-25T11:35:15.699Z,3.17
2019-06-25T11:37:20.941Z,3.35
2019-06-25T11:39:25.720Z,3.35
2019-06-25T11:41:30.671Z,3.40
2019-06-25T11:43:44.283Z,3.85
2019-06-25T11:45:42.570Z,3.45
2019-06-25T11:47:48.383Z,3.30
2019-06-25T11:49:53.227Z,3.30
2019-06-25T11:51:58.547Z,3.70
2019-06-25T11:54:03.559Z,3.60
2019-06-25T11:56:08.305Z,3.83
2019-06-25T11:58:12.991Z,4.40
2019-06-25T12:00:18.939Z,4.00
2019-06-25T12:02:24.233Z,3.60
2019-06-25T12:04:28.976Z,3.83
2019-06-25T12:06:52.387Z,3.50
2019-06-25T12:08:40.350Z,3.15
2019-06-25T12:10:45.119Z,3.90
2019-06-25T12:12:50.104Z,3.98
2019-06-25T12:14:54.878Z,3.10
2019-06-25T12:16:59.617Z,3.52
2019-06-25T12:19:05.096Z,3.05
2019-06-25T12:21:09.872Z,3.25
2019-06-25T12:23:14.651Z,3.60
2019-06-25T12:25:19.638Z,3.50
2019-06-25T12:27:24.418Z,3.20
2019-06-25T12:29:29.772Z,3.67
2019-06-25T12:31:34.849Z,3.45
2019-06-25T12:33:40.107Z,3.62
2019-06-25T12:35:45.638Z,3.58
2019-06-25T12:37:50.627Z,3.58
2019-06-25T12:39:55.801Z,3.60
2019-06-25T12:42:00.959Z,3.45
2019-06-25T12:44:05.706Z,3.72
2019-06-25T12:46:10.468Z,3.42
2019-06-25T12:48:15.659Z,3.47
2019-06-25T12:50:21.371Z,3.15
2019-06-25T12:52:26.172Z,3.67
2019-06-25T12:54:30.935Z,3.72
2019-06-25T12:56:35.679Z,3.15
2019-06-25T12:58:40.471Z,3.62
2019-06-25T13:00:45.578Z,3.50
2019-06-25T13:02:50.350Z,3.47
2019-06-25T13:04:55.082Z,3.52
2019-06-25T13:07:00.036Z,3.25
2019-06-25T13:09:06.681Z,3.45
2019-06-25T13:11:11.419Z,3.30
2019-06-25T13:13:16.162Z,3.25
2019-06-25T13:15:21.207Z,3.75
2019-06-25T13:17:26.337Z,3.60
2019-06-25T13:19:31.202Z,3.67
2019-06-25T13:21:35.934Z,3.17
2019-06-25T13:23:41.242Z,3.60
2019-06-25T13:25:46.040Z,3.60
2019-06-25T13:27:50.813Z,3.42
2019-06-25T13:29:55.704Z,3.42
2019-06-25T13:32:00.525Z,3.67
2019-06-25T13:34:05.446Z,3.00
2019-06-25T13:36:10.683Z,3.85
2019-06-25T13:38:15.467Z,3.58
2019-06-25T13:40:22.122Z,5.30
2019-06-25T13:42:26.868Z,3.70
2019-06-25T13:44:32.145Z,3.72
2019-06-25T13:46:36.967Z,3.10
2019-06-25T13:48:41.754Z,3.30
2019-06-25T13:50:46.990Z,3.30
2019-06-25T13:52:51.840Z,3.37
2019-06-25T13:54:56.624Z,3.22
2019-06-25T13:57:01.440Z,3.20
2019-06-25T13:59:06.172Z,3.62
2019-06-25T14:01:11.017Z,3.10
2019-06-25T14:03:15.895Z,3.15
2019-06-25T14:05:21.157Z,2.98
2019-06-25T14:07:26.927Z,3.37
2019-06-25T14:09:31.768Z,3.40
2019-06-25T14:11:36.541Z,3.27
2019-06-25T14:13:41.403Z,3.10
2019-06-25T14:15:46.160Z,2.98
2019-06-25T14:17:50.934Z,3.33
2019-06-25T14:19:55.768Z,3.12
2019-06-25T14:22:00.713Z,3.10
2019-06-25T14:24:09.620Z,3.67
2019-06-25T14:26:14.926Z,3.47
2019-06-25T14:28:19.710Z,3.42
2019-06-25T14:30:24.776Z,3.47
2019-06-25T14:32:29.514Z,4.85
2019-06-25T14:34:34.515Z,2.70
2019-06-25T14:36:39.288Z,3.42
2019-06-25T14:38:44.450Z,3.00
2019-06-25T14:40:49.245Z,2.70
2019-06-25T14:42:54.425Z,3.05
2019-06-25T14:44:59.338Z,2.77
2019-06-25T14:47:04.161Z,2.98
2019-06-25T14:49:09.114Z,2.70
2019-06-25T14:51:15.175Z,2.80
2019-06-25T14:53:20.591Z,2.62
2019-06-25T14:55:25.371Z,2.52
2019-06-25T14:57:30.176Z,2.80
2019-06-25T14:59:35.059Z,2.45
2019-06-25T15:01:39.799Z,3.42
2019-06-25T15:03:44.639Z,3.00
2019-06-25T15:05:49.378Z,3.08
2019-06-25T15:07:54.261Z,3.22
2019-06-25T15:09:59.296Z,2.90
2019-06-25T15:12:04.044Z,3.58
2019-06-25T15:14:08.861Z,2.85
2019-06-25T15:16:13.615Z,2.80
2019-06-25T15:18:18.838Z,3.22
2019-06-25T15:20:23.517Z,2.80
2019-06-25T15:22:28.352Z,2.80
2019-06-25T15:24:33.174Z,2.80
2019-06-25T15:26:38.294Z,2.60
2019-06-25T15:28:43.005Z,2.83
2019-06-25T15:30:47.995Z,2.85
2019-06-25T15:32:52.797Z,2.92
2019-06-25T15:34:58.173Z,2.50
2019-06-25T15:37:03.335Z,3.15
2019-06-25T15:39:09.425Z,2.83
2019-06-25T15:41:14.203Z,3.00
2019-06-25T15:43:18.920Z,3.22
2019-06-25T15:45:23.682Z,3.08
2019-06-25T15:47:29.144Z,4.67
2019-06-25T15:49:35.468Z,3.45
2019-06-25T15:51:40.357Z,3.40
2019-06-25T15:53:45.499Z,3.52
2019-06-25T15:55:50.361Z,3.17
2019-06-25T15:57:57.255Z,2.75
2019-06-25T16:00:01.651Z,3.20
2019-06-25T16:02:06.563Z,3.62
2019-06-25T16:04:11.285Z,3.52
2019-06-25T16:06:16.231Z,3.55
2019-06-25T16:08:21.420Z,5.15
2019-06-25T16:10:26.184Z,6.40
2019-06-25T16:12:30.951Z,6.00
2019-06-25T16:14:40.633Z,4.85
2019-06-25T16:16:45.854Z,3.55
2019-06-25T16:18:53.019Z,3.45
2019-06-25T16:20:57.466Z,3.87
2019-06-25T16:23:02.606Z,3.65
2019-06-25T16:25:08.951Z,3.50
2019-06-25T16:27:13.718Z,3.60
2019-06-25T16:29:19.032Z,3.40
2019-06-25T16:31:26.486Z,3.80
2019-06-25T16:33:31.043Z,4.37
2019-06-25T16:35:36.145Z,3.60
2019-06-25T16:37:40.961Z,4.80
2019-06-25T16:39:45.715Z,3.58
2019-06-25T16:41:50.614Z,3.25
2019-06-25T16:43:55.764Z,3.60
2019-06-25T16:46:01.433Z,3.30
2019-06-25T16:48:06.385Z,3.85
2019-06-25T16:50:11.705Z,4.08
2019-06-25T16:52:16.553Z,3.45
2019-06-25T16:54:21.693Z,3.75
2019-06-25T16:56:26.977Z,4.03
2019-06-25T16:58:35.411Z,3.60
2019-06-25T17:00:38.301Z,3.80
2019-06-25T17:02:53.736Z,3.58
2019-06-25T17:04:50.150Z,3.60
2019-06-25T17:06:54.964Z,3.50
2019-06-25T17:08:59.983Z,3.52
2019-06-25T17:11:05.283Z,3.30
2019-06-25T17:13:10.061Z,3.80
2019-06-25T17:15:15.180Z,3.40
2019-06-25T17:17:20.631Z,3.77
2019-06-25T17:19:25.609Z,3.30
2019-06-25T17:21:30.722Z,3.77
2019-06-25T17:23:35.577Z,3.95
2019-06-25T17:25:40.738Z,4.33
2019-06-25T17:27:50.484Z,4.17
2019-06-25T17:29:53.370Z,3.98
2019-06-25T17:31:58.813Z,4.08
2019-06-25T17:34:03.575Z,3.85
2019-06-25T17:36:08.409Z,3.80
2019-06-25T17:38:13.512Z,4.35
2019-06-25T17:40:19.158Z,3.47
2019-06-25T17:42:24.001Z,3.77
2019-06-25T17:44:29.661Z,3.75
2019-06-25T17:46:34.921Z,4.03
2019-06-25T17:48:40.661Z,3.65
2019-06-25T17:50:45.457Z,4.03
2019-06-25T17:52:53.296Z,3.85
2019-06-25T17:54:56.743Z,3.52
2019-06-25T17:57:01.625Z,3.80
2019-06-25T17:59:06.869Z,3.35
2019-06-25T18:01:11.682Z,3.83
2019-06-25T18:03:16.564Z,3.40
2019-06-25T18:05:22.995Z,3.60
2019-06-25T18:07:28.303Z,3.42
2019-06-25T18:09:40.435Z,4.00
2019-06-25T18:11:40.899Z,3.90
2019-06-25T18:13:47.393Z,3.60
2019-06-25T18:15:52.314Z,3.80
2019-06-25T18:17:57.199Z,4.15
2019-06-25T18:20:02.789Z,3.70
2019-06-25T18:22:07.709Z,3.95
2019-06-25T18:24:12.943Z,3.87
2019-06-25T18:26:17.731Z,4.00
2019-06-25T18:28:23.011Z,4.22
2019-06-25T18:30:30.114Z,4.10
2019-06-25T18:32:37.047Z,3.72
2019-06-25T18:34:42.524Z,3.87
2019-06-25T18:36:48.443Z,3.87
2019-06-25T18:38:53.224Z,3.83
2019-06-25T18:40:57.978Z,4.65
2019-06-25T18:43:02.725Z,4.25
2019-06-25T18:45:07.786Z,3.60
2019-06-25T18:47:15.054Z,4.25
2019-06-25T18:49:20.193Z,3.50
2019-06-25T18:51:27.360Z,4.20
2019-06-25T18:53:32.626Z,3.77
2019-06-25T18:55:37.596Z,3.83
2019-06-25T18:57:42.449Z,3.90
2019-06-25T18:59:47.608Z,3.85
2019-06-25T19:01:52.387Z,3.37
2019-06-25T19:03:58.401Z,4.67
2019-06-25T19:06:03.214Z,4.50
2019-06-25T19:08:08.353Z,3.83
2019-06-25T19:10:14.527Z,4.42
2019-06-25T19:12:19.282Z,4.50
2019-06-25T19:14:24.208Z,4.20
2019-06-25T19:16:29.357Z,4.58
2019-06-25T19:18:34.637Z,4.12
2019-06-25T19:20:39.756Z,4.35
2019-06-25T19:22:44.989Z,4.00
2019-06-25T19:24:49.802Z,3.90
2019-06-25T19:26:54.904Z,4.00
2019-06-25T19:29:00.631Z,4.03
2019-06-25T19:31:05.552Z,5.75
2019-06-25T19:33:10.403Z,4.95
2019-06-25T19:35:15.308Z,4.35
2019-06-25T19:37:20.201Z,4.55
2019-06-25T19:39:25.372Z,4.70
2019-06-25T19:41:31.301Z,4.30
2019-06-25T19:43:36.418Z,4.50
2019-06-25T19:45:41.197Z,4.92
2019-06-25T19:47:50.834Z,5.10
2019-06-25T19:49:54.067Z,5.00
2019-06-25T19:51:59.192Z,5.30
2019-06-25T19:54:03.975Z,5.17
2019-06-25T19:56:08.713Z,4.90
2019-06-25T19:58:13.588Z,4.83
2019-06-25T20:00:18.554Z,5.05
2019-06-25T20:02:23.652Z,4.80
2019-06-25T20:04:28.508Z,4.67
2019-06-25T20:06:33.259Z,4.55
2019-06-25T20:08:38.114Z,4.55
2019-06-25T20:10:43.615Z,4.35
2019-06-25T20:12:48.456Z,3.90
2019-06-25T20:14:53.248Z,4.50
2019-06-25T20:16:58.008Z,4.40
2019-06-25T20:19:06.213Z,5.03
2019-06-25T20:21:11.026Z,4.35
2019-06-25T20:23:16.294Z,4.67
2019-06-25T20:25:21.086Z,4.30
2019-06-25T20:27:26.027Z,4.22
2019-06-25T20:29:31.236Z,4.83
2019-06-25T20:31:35.976Z,5.12
2019-06-25T20:33:41.830Z,4.47
2019-06-25T20:35:46.682Z,4.05
2019-06-25T20:37:51.760Z,4.70
2019-06-25T20:39:56.531Z,4.65
2019-06-25T20:42:01.265Z,5.00
2019-06-25T20:44:06.172Z,5.50
2019-06-25T20:46:11.012Z,5.03
2019-06-25T20:48:15.922Z,4.37
2019-06-25T20:50:20.677Z,4.42
2019-06-25T20:52:25.444Z,5.10
2019-06-25T20:54:30.205Z,4.20
2019-06-25T20:56:34.976Z,4.47
2019-06-25T20:58:39.715Z,4.92
2019-06-25T21:00:44.673Z,4.75
2019-06-25T21:02:49.501Z,5.20
2019-06-25T21:04:54.264Z,4.55
2019-06-25T21:06:59.050Z,4.70
2019-06-25T21:09:03.816Z,5.20
2019-06-25T21:11:08.750Z,5.50
2019-06-25T21:13:13.550Z,4.85
2019-06-25T21:15:18.717Z,4.55
2019-06-25T21:17:23.584Z,4.97
2019-06-25T21:19:42.118Z,4.95
2019-06-25T21:21:34.885Z,4.67
2019-06-25T21:23:54.513Z,4.62
2019-06-25T21:25:46.125Z,4.97
2019-06-25T21:27:51.848Z,5.20
2019-06-25T21:29:56.776Z,4.70
2019-06-25T21:32:01.614Z,4.87
2019-06-25T21:34:06.429Z,4.05
2019-06-25T21:36:11.213Z,4.80
2019-06-25T21:38:16.069Z,4.65
2019-06-25T21:40:21.101Z,4.85
2019-06-25T21:42:25.970Z,5.17
2019-06-25T21:44:30.754Z,5.67
2019-06-25T21:46:36.031Z,5.75
2019-06-25T21:48:40.784Z,5.47
2019-06-25T21:50:45.638Z,5.75
2019-06-25T21:52:50.392Z,6.53
2019-06-25T21:54:55.609Z,6.17
2019-06-25T21:57:00.444Z,6.92
2019-06-25T21:59:05.803Z,7.58
2019-06-25T22:01:10.777Z,7.37
2019-06-25T22:03:16.427Z,7.47
2019-06-25T22:05:21.261Z,9.00
2019-06-25T22:07:26.937Z,9.88
2019-06-25T22:09:31.829Z,10.40
2019-06-25T22:11:37.683Z,12.75
2019-06-25T22:13:47.102Z,12.47
2019-06-25T22:15:50.626Z,13.35
2019-06-25T22:17:55.441Z,15.78
2019-06-25T22:20:00.264Z,16.12
2019-06-25T22:22:18.771Z,17.95
2019-06-25T22:24:12.665Z,18.80
2019-06-25T22:26:17.542Z,17.87
2019-06-25T22:28:23.099Z,18.27
2019-06-25T22:30:27.928Z,19.93
2019-06-25T22:32:33.148Z,20.17
2019-06-25T22:34:38.047Z,21.60
2019-06-25T22:36:42.949Z,22.15
2019-06-25T22:38:47.788Z,21.00
2019-06-25T22:40:53.423Z,22.60
2019-06-25T22:42:58.688Z,22.48
2019-06-25T22:45:04.037Z,25.30
2019-06-25T22:47:08.880Z,24.23
2019-06-25T22:49:13.972Z,26.23
2019-06-25T22:51:18.843Z,28.73
2019-06-25T22:53:26.481Z,24.40
2019-06-25T22:55:31.855Z,26.87
2019-06-25T22:57:37.093Z,27.73
2019-06-25T22:59:41.843Z,27.70
2019-06-25T23:01:46.625Z,26.83
2019-06-25T23:03:51.505Z,26.45
2019-06-25T23:05:56.306Z,28.57
2019-06-25T23:08:01.084Z,29.63
2019-06-25T23:10:06.963Z,27.85
2019-06-25T23:12:11.694Z,30.62
2019-06-25T23:14:16.511Z,31.33
2019-06-25T23:16:21.302Z,28.70
2019-06-25T23:18:26.054Z,30.33
2019-06-25T23:20:31.215Z,32.00
2019-06-25T23:22:36.846Z,30.77
2019-06-25T23:24:42.110Z,33.05
2019-06-25T23:26:46.876Z,33.30
2019-06-25T23:28:52.081Z,34.43
2019-06-25T23:30:56.854Z,32.43
2019-06-25T23:33:02.448Z,33.80
2019-06-25T23:35:07.892Z,33.00
2019-06-25T23:37:13.057Z,32.20
2019-06-25T23:39:17.864Z,35.70
2019-06-25T23:41:22.663Z,36.60
2019-06-25T23:43:27.787Z,33.70
2019-06-25T23:45:32.639Z,35.50
2019-06-25T23:47:37.560Z,34.33
2019-06-25T23:49:42.342Z,38.37
2019-06-25T23:51:47.498Z,37.30
2019-06-25T23:53:52.256Z,35.77
2019-06-25T23:55:58.474Z,35.70
2019-06-25T23:58:03.639Z,34.83
